createdAt,value
2019-02-03T00:00:38.315Z,57.90
2019-02-03T00:01:38.270Z,56.10
2019-02-03T00:02:38.226Z,56.40
2019-02-03T00:03:38.180Z,55.20
2019-02-03T00:04:38.136Z,54.00
2019-02-03T00:05:38.094Z,54.90
2019-02-03T00:06:38.052Z,55.20
2019-02-03T00:07:38.001Z,53.60
2019-02-03T00:08:37.958Z,55.00
2019-02-03T00:09:37.917Z,55.10
2019-02-03T00:10:37.877Z,51.20
2019-02-03T00:11:37.832Z,49.70
2019-02-03T00:12:37.782Z,52.20
2019-02-03T00:13:37.735Z,51.90
2019-02-03T00:14:37.690Z,49.60
2019-02-03T00:15:37.645Z,53.00
2019-02-03T00:16:37.603Z,49.80
2019-02-03T00:17:37.560Z,53.00
2019-02-03T00:18:37.517Z,52.30
2019-02-03T00:19:37.475Z,54.40
2019-02-03T00:20:37.427Z,53.00
2019-02-03T00:21:37.384Z,51.70
2019-02-03T00:22:37.335Z,52.60
2019-02-03T00:23:37.299Z,58.20
2019-02-03T00:24:37.249Z,51.10
2019-02-03T00:25:37.204Z,50.00
2019-02-03T00:26:37.157Z,56.80
2019-02-03T00:27:37.113Z,53.50
2019-02-03T00:28:37.069Z,52.90
2019-02-03T00:29:37.027Z,51.00
2019-02-03T00:30:36.987Z,53.10
2019-02-03T00:31:36.943Z,57.40
2019-02-03T00:32:36.895Z,55.00
2019-02-03T00:33:36.847Z,53.70
2019-02-03T00:34:36.801Z,55.70
2019-02-03T00:35:36.759Z,52.70
2019-02-03T00:36:36.713Z,49.80
2019-02-03T00:37:36.670Z,52.30
2019-02-03T00:38:36.758Z,53.20
2019-02-03T00:39:36.613Z,53.00
2019-02-03T00:40:36.542Z,52.50
2019-02-03T00:41:36.494Z,51.20
2019-02-03T00:42:36.451Z,53.50
2019-02-03T00:43:36.432Z,52.70
2019-02-03T00:44:36.361Z,52.50
2019-02-03T00:45:36.314Z,52.40
2019-02-03T00:46:36.267Z,55.70
2019-02-03T00:47:36.223Z,52.60
2019-02-03T00:48:36.180Z,51.30
2019-02-03T00:49:36.137Z,53.30
2019-02-03T00:50:36.097Z,55.00
2019-02-03T00:51:36.052Z,52.90
2019-02-03T00:52:36.004Z,54.00
2019-02-03T00:53:35.958Z,57.10
2019-02-03T00:54:35.911Z,56.40
2019-02-03T00:55:35.874Z,50.10
2019-02-03T00:56:35.827Z,53.00
2019-02-03T00:57:35.781Z,55.20
2019-02-03T00:58:35.737Z,53.30
2019-02-03T00:59:35.691Z,49.80
2019-02-03T01:00:35.647Z,52.00
2019-02-03T01:01:35.605Z,52.50
2019-02-03T01:02:35.562Z,51.50
2019-02-03T01:03:35.513Z,52.20
2019-02-03T01:04:35.469Z,52.90
2019-02-03T01:05:35.428Z,53.00
2019-02-03T01:06:35.386Z,52.60
2019-02-03T01:07:35.340Z,52.00
2019-02-03T01:08:35.296Z,50.50
2019-02-03T01:09:35.249Z,51.30
2019-02-03T01:10:35.204Z,52.00
2019-02-03T01:11:35.164Z,53.10
2019-02-03T01:12:35.116Z,50.70
2019-02-03T01:13:35.070Z,51.50
2019-02-03T01:14:35.025Z,50.80
2019-02-03T01:15:34.983Z,49.10
2019-02-03T01:16:34.937Z,51.70
2019-02-03T01:17:34.897Z,51.30
2019-02-03T01:18:34.853Z,50.90
2019-02-03T01:19:34.809Z,52.10
2019-02-03T01:20:34.762Z,49.90
2019-02-03T01:21:34.717Z,51.20
2019-02-03T01:22:34.670Z,51.30
2019-02-03T01:23:34.626Z,50.90
2019-02-03T01:24:34.584Z,50.00
2019-02-03T01:25:34.540Z,51.70
2019-02-03T01:26:34.498Z,50.80
2019-02-03T01:27:34.448Z,52.90
2019-02-03T01:28:34.404Z,53.40
2019-02-03T01:29:34.362Z,52.60
2019-02-03T01:30:34.320Z,50.40
2019-02-03T01:31:34.278Z,54.30
2019-02-03T01:32:34.229Z,54.70
2019-02-03T01:33:34.183Z,50.90
2019-02-03T01:34:34.142Z,51.30
2019-02-03T01:35:34.094Z,52.30
2019-02-03T01:36:34.051Z,53.70
2019-02-03T01:37:39.710Z,53.20
2019-02-03T01:38:33.966Z,53.60
2019-02-03T01:39:33.924Z,54.70
2019-02-03T01:40:33.877Z,52.60
2019-02-03T01:41:33.831Z,52.10
2019-02-03T01:42:33.785Z,52.80
2019-02-03T01:43:33.750Z,50.80
2019-02-03T01:44:33.698Z,51.70
2019-02-03T01:45:33.654Z,50.50
2019-02-03T01:46:33.606Z,51.40
2019-02-03T01:47:33.562Z,49.90
2019-02-03T01:48:33.519Z,49.90
2019-02-03T01:49:33.479Z,48.70
2019-02-03T01:50:33.437Z,48.80
2019-02-03T01:51:33.392Z,50.70
2019-02-03T01:52:33.344Z,48.70
2019-02-03T01:53:33.297Z,48.80
2019-02-03T01:54:33.251Z,49.90
2019-02-03T01:55:33.208Z,50.00
2019-02-03T01:56:33.165Z,48.40
2019-02-03T01:57:33.121Z,49.10
2019-02-03T01:58:33.080Z,50.10
2019-02-03T01:59:33.029Z,47.70
2019-02-03T02:00:32.987Z,47.00
2019-02-03T02:01:32.947Z,47.70
2019-02-03T02:02:32.905Z,46.60
2019-02-03T02:03:32.859Z,45.50
2019-02-03T02:04:32.812Z,47.20
2019-02-03T02:05:32.769Z,48.80
2019-02-03T02:06:32.718Z,49.10
2019-02-03T02:07:32.685Z,48.90
2019-02-03T02:08:32.633Z,50.00
2019-02-03T02:09:32.590Z,49.30
2019-02-03T02:10:32.548Z,49.60
2019-02-03T02:11:32.504Z,48.60
2019-02-03T02:12:32.456Z,50.00
2019-02-03T02:13:32.411Z,46.80
2019-02-03T02:14:32.452Z,45.70
2019-02-03T02:15:32.327Z,49.00
2019-02-03T02:16:32.284Z,49.80
2019-02-03T02:17:32.233Z,49.20
2019-02-03T02:18:32.188Z,46.80
2019-02-03T02:19:32.143Z,48.30
2019-02-03T02:20:32.099Z,49.60
2019-02-03T02:21:32.058Z,49.40
2019-02-03T02:22:32.015Z,49.30
2019-02-03T02:23:31.971Z,49.80
2019-02-03T02:24:31.924Z,49.60
2019-02-03T02:25:31.877Z,50.00
2019-02-03T02:26:31.832Z,49.70
2019-02-03T02:27:31.789Z,48.90
2019-02-03T02:28:31.743Z,48.40
2019-02-03T02:29:31.701Z,47.80
2019-02-03T02:30:31.661Z,48.60
2019-02-03T02:31:31.611Z,51.10
2019-02-03T02:32:31.566Z,50.50
2019-02-03T02:33:31.527Z,48.30
2019-02-03T02:34:31.483Z,49.60
2019-02-03T02:35:31.456Z,48.70
2019-02-03T02:36:31.390Z,50.40
2019-02-03T02:37:31.349Z,49.40
2019-02-03T02:38:31.297Z,49.10
2019-02-03T02:39:31.253Z,50.40
2019-02-03T02:40:31.245Z,48.00
2019-02-03T02:41:31.172Z,51.40
2019-02-03T02:42:31.235Z,49.60
2019-02-03T02:43:31.083Z,46.30
2019-02-03T02:44:31.036Z,50.70
2019-02-03T02:45:30.993Z,52.10
2019-02-03T02:46:30.943Z,48.80
2019-02-03T02:47:30.906Z,50.50
2019-02-03T02:48:30.856Z,53.00
2019-02-03T02:49:30.812Z,52.50
2019-02-03T02:50:30.891Z,49.20
2019-02-03T02:51:30.723Z,51.30
2019-02-03T02:52:30.679Z,49.10
2019-02-03T02:53:30.638Z,52.00
2019-02-03T02:54:30.596Z,50.90
2019-02-03T02:55:30.556Z,49.00
2019-02-03T02:56:30.502Z,50.90
2019-02-03T02:57:30.474Z,51.40
2019-02-03T02:58:30.410Z,48.30
2019-02-03T02:59:30.367Z,54.30
2019-02-03T03:00:30.325Z,48.80
2019-02-03T03:01:30.279Z,51.30
2019-02-03T03:02:30.236Z,51.20
2019-02-03T03:03:30.187Z,51.80
2019-02-03T03:04:30.148Z,51.80
2019-02-03T03:05:30.099Z,53.10
2019-02-03T03:06:30.060Z,53.10
2019-02-03T03:07:30.014Z,53.60
2019-02-03T03:08:29.967Z,53.80
2019-02-03T03:09:29.919Z,57.60
2019-02-03T03:10:29.874Z,58.40
2019-02-03T03:11:29.829Z,55.90
2019-02-03T03:12:29.785Z,55.80
2019-02-03T03:13:29.747Z,58.50
2019-02-03T03:14:29.701Z,57.10
2019-02-03T03:15:29.656Z,54.90
2019-02-03T03:16:29.608Z,59.20
2019-02-03T03:17:29.562Z,59.30
2019-02-03T03:18:29.516Z,59.10
2019-02-03T03:19:29.513Z,53.40
2019-02-03T03:20:29.431Z,56.20
2019-02-03T03:21:29.384Z,64.10
2019-02-03T03:22:29.340Z,58.70
2019-02-03T03:23:29.296Z,60.90
2019-02-03T03:24:29.249Z,65.00
2019-02-03T03:25:29.206Z,67.20
2019-02-03T03:26:29.166Z,66.10
2019-02-03T03:27:29.119Z,68.50
2019-02-03T03:28:29.074Z,55.10
2019-02-03T03:29:29.026Z,63.30
2019-02-03T03:30:29.056Z,65.40
2019-02-03T03:31:28.936Z,64.80
2019-02-03T03:32:28.943Z,66.40
2019-02-03T03:33:28.851Z,68.70
2019-02-03T03:34:28.809Z,62.60
2019-02-03T03:35:28.756Z,61.80
2019-02-03T03:36:28.716Z,57.10
2019-02-03T03:37:28.671Z,58.50
2019-02-03T03:38:32.216Z,58.80
2019-02-03T03:39:28.584Z,59.30
2019-02-03T03:40:28.537Z,61.60
2019-02-03T03:41:28.490Z,56.70
2019-02-03T03:42:28.447Z,61.40
2019-02-03T03:43:28.398Z,61.70
2019-02-03T03:44:28.358Z,60.20
2019-02-03T03:45:28.312Z,57.20
2019-02-03T03:46:28.271Z,62.00
2019-02-03T03:47:28.226Z,66.90
2019-02-03T03:48:28.179Z,63.10
2019-02-03T03:49:28.135Z,57.70
2019-02-03T03:50:28.088Z,66.90
2019-02-03T04:06:29.275Z,49.90
2019-02-03T04:07:29.199Z,50.10
2019-02-03T04:08:29.158Z,62.60
2019-02-03T04:09:29.120Z,70.10
2019-02-03T04:10:29.067Z,74.90
2019-02-03T04:11:29.016Z,71.70
2019-02-03T04:12:28.963Z,68.40
2019-02-03T04:13:28.919Z,71.70
2019-02-03T04:14:28.873Z,71.30
2019-02-03T04:15:28.835Z,68.50
2019-02-03T04:16:28.777Z,66.70
2019-02-03T04:17:28.734Z,69.90
2019-02-03T04:18:28.689Z,72.00
2019-02-03T04:19:28.746Z,71.70
2019-02-03T04:20:28.606Z,72.10
2019-02-03T04:21:28.556Z,72.30
2019-02-03T04:22:28.510Z,75.10
2019-02-03T04:23:28.469Z,76.10
2019-02-03T04:24:28.415Z,73.20
2019-02-03T04:25:28.515Z,69.80
2019-02-03T04:26:28.327Z,66.80
2019-02-03T04:27:28.321Z,68.00
2019-02-03T04:28:28.241Z,72.80
2019-02-03T04:29:28.221Z,72.90
2019-02-03T04:30:28.146Z,73.80
2019-02-03T04:31:28.100Z,70.70
2019-02-03T04:32:28.062Z,72.40
2019-02-03T04:33:28.015Z,72.60
2019-02-03T04:34:29.820Z,72.40
2019-02-03T04:35:27.968Z,73.10
2019-02-03T04:36:27.883Z,68.40
2019-02-03T04:37:27.835Z,72.40
2019-02-03T04:38:27.789Z,70.80
2019-02-03T04:39:27.746Z,71.50
2019-02-03T04:40:27.709Z,72.90
2019-02-03T04:41:27.660Z,71.00
2019-02-03T04:42:27.615Z,72.30
2019-02-03T04:43:27.571Z,72.10
2019-02-03T04:44:27.522Z,70.20
2019-02-03T04:45:27.477Z,70.60
2019-02-03T04:46:27.440Z,70.20
2019-02-03T04:47:27.392Z,72.10
2019-02-03T04:48:27.346Z,70.30
2019-02-03T04:49:27.299Z,71.30
2019-02-03T04:50:27.263Z,69.50
2019-02-03T04:51:27.210Z,70.70
2019-02-03T04:52:27.168Z,68.10
2019-02-03T04:53:27.178Z,69.90
2019-02-03T04:54:27.080Z,68.90
2019-02-03T04:55:27.034Z,68.40
2019-02-03T04:56:26.988Z,69.60
2019-02-03T04:57:26.947Z,70.60
2019-02-03T04:58:26.897Z,70.40
2019-02-03T04:59:26.855Z,71.00
2019-02-03T05:00:26.813Z,64.00
2019-02-03T05:01:26.771Z,70.80
2019-02-03T05:02:26.721Z,70.90
2019-02-03T05:03:26.678Z,72.50
2019-02-03T05:04:26.636Z,70.70
2019-02-03T05:05:26.593Z,70.70
2019-02-03T05:06:26.547Z,71.80
2019-02-03T05:07:26.501Z,71.30
2019-02-03T05:08:26.456Z,69.40
2019-02-03T05:09:26.411Z,69.50
2019-02-03T05:10:26.365Z,71.30
2019-02-03T05:11:26.333Z,71.50
2019-02-03T05:12:26.339Z,70.50
2019-02-03T05:13:26.239Z,68.90
2019-02-03T05:14:26.193Z,69.70
2019-02-03T05:15:26.148Z,68.10
2019-02-03T05:16:26.100Z,66.50
2019-02-03T05:17:26.055Z,69.60
2019-02-03T05:18:26.016Z,68.60
2019-02-03T05:19:25.969Z,67.10
2019-02-03T05:20:25.926Z,67.40
2019-02-03T05:21:25.877Z,63.80
2019-02-03T05:22:25.834Z,69.00
2019-02-03T05:23:25.791Z,71.90
2019-02-03T05:24:25.748Z,69.00
2019-02-03T05:25:25.705Z,70.10
2019-02-03T05:26:25.660Z,69.70
2019-02-03T05:27:25.615Z,72.90
2019-02-03T05:28:25.571Z,72.40
2019-02-03T05:29:25.540Z,71.50
2019-02-03T05:30:25.546Z,69.20
2019-02-03T05:31:25.435Z,67.70
2019-02-03T05:32:25.394Z,69.30
2019-02-03T05:33:25.368Z,69.10
2019-02-03T05:34:25.382Z,69.30
2019-02-03T05:35:25.258Z,64.60
2019-02-03T05:36:25.218Z,68.40
2019-02-03T05:37:25.176Z,68.60
2019-02-03T05:38:25.128Z,71.30
2019-02-03T05:39:25.653Z,69.00
2019-02-03T05:40:25.036Z,66.50
2019-02-03T05:41:24.992Z,68.60
2019-02-03T05:42:24.945Z,65.70
2019-02-03T05:43:24.972Z,68.40
2019-02-03T05:44:24.861Z,71.40
2019-02-03T05:45:24.819Z,72.00
2019-02-03T05:46:24.774Z,69.60
2019-02-03T05:47:24.742Z,70.90
2019-02-03T05:48:24.725Z,70.40
2019-02-03T05:49:24.637Z,69.70
2019-02-03T05:50:24.597Z,69.10
2019-02-03T05:51:24.551Z,69.60
2019-02-03T05:52:24.504Z,63.90
2019-02-03T05:53:24.458Z,72.00
2019-02-03T05:54:24.413Z,69.70
2019-02-03T05:55:24.372Z,70.30
2019-02-03T05:56:24.515Z,71.50
2019-02-03T05:57:24.288Z,72.10
2019-02-03T05:58:24.243Z,69.00
2019-02-03T05:59:24.199Z,71.80
2019-02-03T06:00:24.150Z,68.30
2019-02-03T06:01:24.105Z,69.30
2019-02-03T06:02:24.059Z,72.90
2019-02-03T06:03:24.015Z,70.20
2019-02-03T06:04:23.975Z,73.00
2019-02-03T06:05:23.932Z,76.20
2019-02-03T06:06:23.880Z,69.00
2019-02-03T06:07:23.841Z,73.80
2019-02-03T06:08:23.809Z,66.50
2019-02-03T06:09:35.910Z,72.30
2019-02-03T06:10:23.709Z,69.40
2019-02-03T06:11:23.663Z,71.20
2019-02-03T06:12:23.618Z,72.20
2019-02-03T06:13:23.572Z,73.40
2019-02-03T06:14:23.526Z,75.80
2019-02-03T06:15:23.485Z,72.00
2019-02-03T06:16:23.456Z,70.80
2019-02-03T06:17:23.400Z,71.80
2019-02-03T06:18:23.355Z,68.00
2019-02-03T06:19:23.309Z,73.60
2019-02-03T06:20:23.262Z,71.90
2019-02-03T06:21:23.216Z,66.20
2019-02-03T06:22:23.177Z,69.40
2019-02-03T06:23:23.131Z,71.30
2019-02-03T06:24:23.084Z,69.80
2019-02-03T06:25:23.039Z,68.80
2019-02-03T06:26:22.995Z,70.90
2019-02-03T06:27:22.951Z,75.30
2019-02-03T06:28:22.909Z,73.60
2019-02-03T06:29:22.868Z,73.40
2019-02-03T06:30:22.822Z,71.00
2019-02-03T06:31:22.776Z,70.30
2019-02-03T06:32:22.729Z,72.60
2019-02-03T06:33:22.683Z,71.80
2019-02-03T06:34:22.664Z,69.40
2019-02-03T06:35:22.599Z,72.40
2019-02-03T06:36:22.555Z,74.70
2019-02-03T06:37:22.513Z,73.30
2019-02-03T06:38:22.461Z,72.80
2019-02-03T06:39:22.419Z,72.60
2019-02-03T06:40:22.376Z,72.90
2019-02-03T06:41:22.336Z,69.30
2019-02-03T06:42:22.289Z,70.00
2019-02-03T06:43:22.243Z,66.60
2019-02-03T06:44:22.199Z,70.20
2019-02-03T06:45:22.153Z,70.80
2019-02-03T06:46:22.107Z,62.60
2019-02-03T06:47:22.064Z,68.40
2019-02-03T06:48:22.022Z,67.70
2019-02-03T06:49:21.979Z,67.70
2019-02-03T06:50:21.934Z,66.60
2019-02-03T06:51:21.887Z,68.50
2019-02-03T06:52:21.842Z,63.90
2019-02-03T06:53:21.795Z,66.50
2019-02-03T06:54:21.756Z,63.80
2019-02-03T06:55:21.711Z,64.10
2019-02-03T06:56:21.665Z,65.10
2019-02-03T06:57:21.622Z,63.50
2019-02-03T06:58:21.572Z,65.80
2019-02-03T06:59:21.530Z,67.10
2019-02-03T07:00:21.489Z,65.10
2019-02-03T07:01:21.446Z,60.90
2019-02-03T07:02:21.402Z,61.20
2019-02-03T07:03:21.361Z,62.80
2019-02-03T07:04:21.309Z,62.80
2019-02-03T07:05:21.263Z,64.20
2019-02-03T07:06:21.227Z,62.40
2019-02-03T07:07:21.175Z,61.10
2019-02-03T07:08:21.133Z,62.40
2019-02-03T07:09:21.093Z,62.90
2019-02-03T07:10:21.043Z,63.50
2019-02-03T07:11:20.998Z,57.00
2019-02-03T07:12:20.956Z,60.40
2019-02-03T07:13:20.913Z,61.10
2019-02-03T07:14:20.871Z,56.80
2019-02-03T07:15:20.824Z,58.60
2019-02-03T07:16:20.777Z,58.30
2019-02-03T07:17:20.734Z,60.10
2019-02-03T07:18:20.685Z,59.70
2019-02-03T07:19:20.642Z,59.30
2019-02-03T07:20:20.600Z,59.40
2019-02-03T07:21:20.559Z,59.90
2019-02-03T07:22:20.518Z,61.20
2019-02-03T07:23:20.468Z,57.40
2019-02-03T07:24:20.418Z,56.20
2019-02-03T07:25:20.439Z,58.70
2019-02-03T07:26:20.334Z,59.10
2019-02-03T07:27:20.289Z,58.60
2019-02-03T07:28:20.243Z,54.50
2019-02-03T07:29:20.195Z,53.40
2019-02-03T07:30:20.152Z,58.60
2019-02-03T07:31:20.108Z,55.80
2019-02-03T07:32:20.066Z,55.90
2019-02-03T07:33:20.029Z,58.30
2019-02-03T07:34:19.978Z,57.50
2019-02-03T07:35:19.933Z,55.10
2019-02-03T07:36:19.886Z,53.80
2019-02-03T07:37:19.867Z,56.50
2019-02-03T07:38:19.795Z,55.90
2019-02-03T07:39:19.754Z,57.20
2019-02-03T07:40:19.710Z,57.70
2019-02-03T07:41:19.672Z,57.50
2019-02-03T07:42:19.618Z,59.00
2019-02-03T07:43:19.577Z,54.70
2019-02-03T07:44:19.533Z,53.20
2019-02-03T07:45:19.495Z,55.10
2019-02-03T07:46:19.447Z,56.00
2019-02-03T07:47:19.401Z,55.80
2019-02-03T07:48:19.368Z,51.70
2019-02-03T07:49:19.310Z,56.30
2019-02-03T07:50:19.311Z,57.30
2019-02-03T07:51:19.221Z,55.50
2019-02-03T07:52:19.178Z,56.40
2019-02-03T07:53:19.136Z,51.10
2019-02-03T07:54:19.092Z,53.70
2019-02-03T07:55:19.043Z,55.60
2019-02-03T07:56:18.999Z,53.90
2019-02-03T07:57:18.953Z,51.30
2019-02-03T07:58:18.914Z,52.10
2019-02-03T07:59:18.869Z,50.30
2019-02-03T08:00:18.821Z,47.10
2019-02-03T08:01:18.774Z,54.70
2019-02-03T08:02:18.729Z,51.40
2019-02-03T08:03:18.687Z,49.60
2019-02-03T08:04:18.644Z,54.50
2019-02-03T08:05:18.605Z,52.90
2019-02-03T08:06:18.558Z,51.40
2019-02-03T08:07:18.512Z,62.90
2019-02-03T08:08:18.467Z,59.50
2019-02-03T08:09:18.419Z,62.70
2019-02-03T08:10:25.352Z,61.60
2019-02-03T08:11:18.337Z,60.00
2019-02-03T08:12:18.289Z,60.80
2019-02-03T08:13:18.248Z,57.60
2019-02-03T08:14:18.196Z,58.40
2019-02-03T08:15:18.154Z,56.30
2019-02-03T08:16:18.110Z,58.90
2019-02-03T08:17:18.069Z,56.30
2019-02-03T08:18:18.026Z,56.20
2019-02-03T08:19:17.987Z,49.20
2019-02-03T08:20:17.933Z,55.30
2019-02-03T08:21:17.885Z,56.80
2019-02-03T08:22:17.847Z,52.00
2019-02-03T08:23:17.799Z,56.40
2019-02-03T08:24:17.761Z,52.20
2019-02-03T08:25:17.716Z,56.50
2019-02-03T08:26:17.669Z,60.20
2019-02-03T08:27:17.624Z,56.20
2019-02-03T08:28:17.583Z,54.60
2019-02-03T08:29:17.532Z,51.50
2019-02-03T08:30:17.491Z,49.60
2019-02-03T08:31:17.445Z,50.30
2019-02-03T08:32:17.400Z,48.80
2019-02-03T08:33:17.355Z,51.70
2019-02-03T08:34:17.307Z,50.80
2019-02-03T08:35:19.859Z,52.50
2019-02-03T08:36:17.223Z,49.40
2019-02-03T08:37:17.185Z,46.40
2019-02-03T08:38:17.138Z,48.20
2019-02-03T08:39:17.090Z,47.50
2019-02-03T08:40:17.043Z,49.80
2019-02-03T08:41:17.000Z,51.00
2019-02-03T08:42:16.952Z,47.40
2019-02-03T08:43:16.912Z,49.30
2019-02-03T08:44:16.867Z,47.60
2019-02-03T08:45:16.826Z,49.10
2019-02-03T08:46:16.774Z,46.80
2019-02-03T08:47:16.735Z,48.90
2019-02-03T08:48:16.691Z,48.80
2019-02-03T08:49:16.648Z,48.00
2019-02-03T08:50:16.656Z,47.70
2019-02-03T08:51:16.557Z,45.90
2019-02-03T08:52:16.511Z,44.80
2019-02-03T08:53:16.463Z,47.80
2019-02-03T08:54:16.427Z,43.00
2019-02-03T08:55:16.381Z,48.40
2019-02-03T08:56:16.334Z,46.70
2019-02-03T08:57:16.288Z,47.90
2019-02-03T08:58:16.249Z,46.60
2019-02-03T08:59:16.200Z,48.50
2019-02-03T09:00:16.159Z,44.40
2019-02-03T09:01:16.113Z,44.50
2019-02-03T09:02:16.071Z,42.30
2019-02-03T09:03:16.020Z,44.90
2019-02-03T09:04:15.985Z,44.20
2019-02-03T09:05:15.936Z,46.10
2019-02-03T09:06:15.891Z,47.80
2019-02-03T09:07:15.852Z,49.90
2019-02-03T09:08:15.801Z,48.00
2019-02-03T09:09:15.758Z,50.40
2019-02-03T09:10:15.712Z,57.00
2019-02-03T09:11:15.664Z,55.30
2019-02-03T09:12:15.840Z,58.80
2019-02-03T09:13:15.582Z,65.90
2019-02-03T09:14:15.538Z,53.60
2019-02-03T09:15:15.493Z,56.20
2019-02-03T09:16:15.446Z,54.20
2019-02-03T09:17:15.401Z,42.60
2019-02-03T09:18:15.359Z,41.70
2019-02-03T09:19:15.316Z,37.90
2019-02-03T09:20:15.270Z,39.80
2019-02-03T09:21:15.225Z,40.20
2019-02-03T09:22:15.180Z,40.00
2019-02-03T09:23:15.133Z,39.80
2019-02-03T09:24:15.109Z,39.50
2019-02-03T09:25:15.050Z,37.70
2019-02-03T09:26:15.004Z,39.40
2019-02-03T09:27:14.963Z,38.40
2019-02-03T09:28:14.914Z,38.50
2019-02-03T09:29:14.871Z,36.50
2019-02-03T09:30:14.825Z,34.20
2019-02-03T09:31:14.783Z,36.10
2019-02-03T09:32:23.407Z,35.90
2019-02-03T09:34:19.133Z,36.90
2019-02-03T09:35:19.087Z,39.10
2019-02-03T09:36:19.022Z,37.80
2019-02-03T09:37:18.978Z,37.20
2019-02-03T09:38:18.937Z,34.20
2019-02-03T09:39:18.948Z,33.60
2019-02-03T09:40:18.842Z,35.40
2019-02-03T09:41:18.801Z,33.10
2019-02-03T09:42:18.762Z,35.10
2019-02-03T09:43:18.710Z,33.00
2019-02-03T09:44:18.668Z,33.50
2019-02-03T09:45:18.624Z,32.40
2019-02-03T09:46:18.580Z,31.00
2019-02-03T09:47:18.539Z,31.70
2019-02-03T09:48:18.492Z,32.00
2019-02-03T09:49:18.448Z,31.80
2019-02-03T09:50:18.407Z,30.80
2019-02-03T09:51:18.357Z,29.40
2019-02-03T09:52:18.322Z,28.30
2019-02-03T09:53:18.271Z,29.40
2019-02-03T09:54:18.225Z,30.10
2019-02-03T09:55:18.187Z,28.30
2019-02-03T09:56:18.140Z,29.10
2019-02-03T09:57:18.093Z,29.10
2019-02-03T09:58:18.048Z,29.60
2019-02-03T09:59:18.011Z,28.10
2019-02-03T10:00:17.965Z,27.90
2019-02-03T10:01:17.926Z,26.70
2019-02-03T10:02:17.878Z,27.10
2019-02-03T10:03:17.829Z,25.60
2019-02-03T10:04:17.791Z,25.50
2019-02-03T10:05:17.742Z,25.30
2019-02-03T10:19:41.662Z,18.00
2019-02-03T10:20:41.575Z,17.50
2019-02-03T10:21:41.531Z,21.50
2019-02-03T10:22:41.486Z,23.70
2019-02-03T10:23:41.438Z,23.90
2019-02-03T10:24:42.540Z,22.90
2019-02-03T10:25:41.341Z,23.30
2019-02-03T10:26:41.293Z,22.30
2019-02-03T10:27:41.252Z,24.60
2019-02-03T10:28:41.205Z,23.80
2019-02-03T10:29:41.159Z,23.00
2019-02-03T10:30:41.114Z,23.10
2019-02-03T10:31:41.067Z,22.50
2019-02-03T10:32:41.023Z,21.40
2019-02-03T10:33:40.983Z,21.90
2019-02-03T10:34:40.940Z,22.60
2019-02-03T10:35:40.895Z,21.90
2019-02-03T10:36:40.852Z,22.10
2019-02-03T10:37:40.802Z,19.70
2019-02-03T10:38:40.754Z,20.90
2019-02-03T10:39:40.711Z,21.40
2019-02-03T10:40:40.669Z,20.80
2019-02-03T10:41:40.627Z,21.50
2019-02-03T10:42:40.585Z,20.80
2019-02-03T10:43:40.534Z,21.70
2019-02-03T10:44:40.492Z,21.40
2019-02-03T10:45:40.451Z,21.10
2019-02-03T10:46:40.409Z,20.40
2019-02-03T10:47:40.365Z,20.10
2019-02-03T10:48:40.318Z,20.20
2019-02-03T10:49:40.272Z,21.30
2019-02-03T10:50:40.226Z,21.50
2019-02-03T10:51:40.182Z,20.60
2019-02-03T10:52:40.142Z,19.50
2019-02-03T10:53:40.099Z,20.40
2019-02-03T10:54:40.055Z,20.20
2019-02-03T10:55:40.021Z,19.50
2019-02-03T10:56:39.966Z,19.00
2019-02-03T10:57:39.921Z,18.60
2019-02-03T10:58:39.873Z,19.20
2019-02-03T10:59:39.841Z,19.20
2019-02-03T11:00:39.791Z,18.60
2019-02-03T11:01:39.748Z,18.90
2019-02-03T11:02:39.699Z,18.60
2019-02-03T11:03:39.661Z,18.30
2019-02-03T11:04:39.613Z,20.40
2019-02-03T11:05:39.574Z,16.70
2019-02-03T11:06:39.562Z,15.10
2019-02-03T11:07:39.486Z,14.20
2019-02-03T11:08:39.440Z,14.80
2019-02-03T11:09:39.395Z,15.60
2019-02-03T11:10:39.362Z,15.70
2019-02-03T11:11:39.305Z,16.10
2019-02-03T11:12:39.263Z,13.10
2019-02-03T11:13:39.222Z,13.70
2019-02-03T11:14:39.179Z,13.70
2019-02-03T11:15:39.129Z,12.30
2019-02-03T11:16:39.196Z,12.70
2019-02-03T11:17:39.046Z,12.70
2019-02-03T11:18:39.005Z,13.00
2019-02-03T11:19:38.964Z,12.70
2019-02-03T11:20:38.916Z,12.50
2019-02-03T11:21:38.870Z,12.40
2019-02-03T11:22:38.825Z,12.30
2019-02-03T11:23:38.780Z,11.90
2019-02-03T11:24:38.746Z,11.40
2019-02-03T11:25:38.700Z,11.50
2019-02-03T11:26:38.657Z,9.80
2019-02-03T11:27:38.613Z,10.60
2019-02-03T11:28:38.568Z,11.20
2019-02-03T11:29:38.522Z,10.60
2019-02-03T11:30:38.482Z,10.30
2019-02-03T11:31:38.440Z,9.60
2019-02-03T11:32:38.393Z,9.40
2019-02-03T11:33:38.347Z,10.20
2019-02-03T11:34:38.300Z,10.80
2019-02-03T11:35:38.260Z,9.40
2019-02-03T11:36:38.219Z,10.70
2019-02-03T11:37:38.175Z,10.90
2019-02-03T11:38:38.133Z,10.20
2019-02-03T11:39:38.092Z,10.30
2019-02-03T11:40:38.048Z,10.60
2019-02-03T11:41:48.280Z,10.30
2019-02-03T11:42:37.955Z,10.60
2019-02-03T11:43:37.911Z,11.10
2019-02-03T11:44:37.870Z,9.80
2019-02-03T11:45:37.828Z,10.80
2019-02-03T11:46:37.788Z,10.90
2019-02-03T11:47:37.737Z,10.60
2019-02-03T11:48:37.696Z,10.50
2019-02-03T11:49:37.654Z,9.40
2019-02-03T11:50:37.615Z,10.20
2019-02-03T11:51:37.589Z,10.90
2019-02-03T11:52:37.525Z,10.60
2019-02-03T11:53:37.479Z,9.80
2019-02-03T11:54:37.434Z,9.50
2019-02-03T11:55:37.392Z,8.90
2019-02-03T11:56:37.349Z,10.00
2019-02-03T11:57:37.308Z,9.30
2019-02-03T11:58:37.285Z,9.80
2019-02-03T11:59:37.226Z,9.70
2019-02-03T12:00:37.179Z,10.00
2019-02-03T12:01:37.134Z,9.20
2019-02-03T12:02:41.890Z,9.40
2019-02-03T12:03:37.051Z,9.30
2019-02-03T12:04:37.004Z,8.30
2019-02-03T12:05:36.961Z,7.90
2019-02-03T12:06:36.920Z,9.20
2019-02-03T12:07:36.873Z,8.20
2019-02-03T12:08:36.832Z,8.20
2019-02-03T12:09:36.789Z,7.40
2019-02-03T12:10:36.750Z,7.40
2019-02-03T12:11:36.704Z,7.40
2019-02-03T12:12:36.660Z,6.50
2019-02-03T12:13:36.613Z,6.60
2019-02-03T12:14:36.570Z,6.20
2019-02-03T12:15:36.526Z,7.20
2019-02-03T12:16:36.486Z,7.30
2019-02-03T12:17:36.446Z,7.50
2019-02-03T12:18:36.402Z,7.50
2019-02-03T12:19:36.353Z,7.60
2019-02-03T12:20:36.313Z,7.10
2019-02-03T12:21:36.271Z,7.50
2019-02-03T12:22:36.229Z,7.00
2019-02-03T12:23:36.187Z,7.00
2019-02-03T12:24:36.142Z,6.70
2019-02-03T12:25:36.097Z,6.60
2019-02-03T12:26:36.519Z,6.60
2019-02-03T12:27:36.009Z,5.80
2019-02-03T12:28:35.968Z,6.10
2019-02-03T12:29:35.926Z,5.70
2019-02-03T12:30:35.885Z,5.80
2019-02-03T12:31:35.842Z,5.90
2019-02-03T12:32:35.799Z,6.10
2019-02-03T12:33:35.755Z,5.80
2019-02-03T12:34:35.707Z,5.00
2019-02-03T12:35:35.669Z,5.40
2019-02-03T12:36:35.628Z,5.10
2019-02-03T12:37:35.580Z,5.60
2019-02-03T12:38:35.542Z,5.70
2019-02-03T12:39:35.491Z,6.10
2019-02-03T12:40:35.452Z,5.50
2019-02-03T12:41:35.409Z,5.70
2019-02-03T12:42:35.368Z,5.40
2019-02-03T12:43:35.324Z,5.30
2019-02-03T12:44:35.280Z,6.10
2019-02-03T12:45:35.243Z,5.70
2019-02-03T12:46:35.188Z,5.50
2019-02-03T12:47:35.146Z,6.40
2019-02-03T12:48:35.107Z,6.20
2019-02-03T12:49:35.064Z,6.50
2019-02-03T12:50:35.024Z,5.90
2019-02-03T12:51:34.974Z,6.60
2019-02-03T12:52:34.934Z,6.90
2019-02-03T12:53:34.892Z,5.80
2019-02-03T12:54:34.850Z,5.80
2019-02-03T12:55:34.810Z,6.00
2019-02-03T12:56:34.763Z,6.40
2019-02-03T12:57:34.721Z,5.90
2019-02-03T12:58:34.677Z,5.10
2019-02-03T12:59:34.633Z,6.20
2019-02-03T13:00:34.592Z,5.20
2019-02-03T13:01:34.551Z,5.80
2019-02-03T13:02:34.508Z,6.10
2019-02-03T13:03:34.464Z,6.30
2019-02-03T13:04:34.420Z,5.60
2019-02-03T13:05:34.377Z,6.10
2019-02-03T13:06:34.330Z,5.50
2019-02-03T13:07:34.293Z,5.10
2019-02-03T13:08:34.250Z,5.10
2019-02-03T13:09:34.204Z,5.60
2019-02-03T13:10:34.158Z,5.30
2019-02-03T13:11:34.115Z,5.80
2019-02-03T13:12:34.076Z,5.20
2019-02-03T13:13:34.035Z,5.70
2019-02-03T13:14:33.997Z,5.90
2019-02-03T13:15:33.955Z,5.30
2019-02-03T13:16:33.907Z,5.30
2019-02-03T13:17:33.863Z,5.10
2019-02-03T13:18:33.819Z,4.80
2019-02-03T13:19:33.773Z,5.60
2019-02-03T13:20:33.736Z,5.10
2019-02-03T13:21:33.693Z,4.80
2019-02-03T13:22:33.651Z,5.30
2019-02-03T13:23:44.273Z,5.60
2019-02-03T13:24:33.561Z,4.90